createdAt,value
2023-04-29T00:01:34.253Z,51.97
2023-04-29T00:04:02.083Z,51.87
2023-04-29T00:06:29.584Z,52.65
2023-04-29T00:08:56.993Z,50.72
2023-04-29T00:11:24.618Z,49.45
2023-04-29T00:13:51.978Z,51.85
2023-04-29T00:16:19.381Z,48.56
2023-04-29T00:18:47.252Z,49.99
2023-04-29T00:21:14.673Z,49.38
2023-04-29T00:23:42.013Z,50.89
2023-04-29T00:26:09.684Z,50.49
2023-04-29T00:28:37.195Z,49.45
2023-04-29T00:31:04.667Z,49.81
2023-04-29T00:33:32.398Z,49.33
2023-04-29T00:35:59.753Z,49.29
2023-04-29T00:38:27.142Z,48.78
2023-04-29T00:40:55.651Z,47.81
2023-04-29T00:43:23.048Z,49.50
2023-04-29T00:45:51.139Z,50.45
2023-04-29T00:48:18.785Z,50.19
2023-04-29T00:50:46.247Z,49.70
2023-04-29T00:53:13.640Z,49.71
2023-04-29T00:55:42.093Z,49.33
2023-04-29T00:58:10.611Z,49.69
2023-04-29T01:00:38.103Z,50.83
2023-04-29T01:03:06.171Z,49.32
2023-04-29T01:05:33.783Z,49.81
2023-04-29T01:08:38.847Z,50.61
2023-04-29T01:11:10.932Z,50.10
2023-04-29T01:13:51.189Z,50.91
2023-04-29T01:16:21.677Z,52.36
2023-04-29T01:18:50.629Z,53.44
2023-04-29T01:21:19.207Z,53.51
2023-04-29T01:23:46.829Z,53.54
2023-04-29T01:26:14.786Z,54.71
2023-04-29T01:29:21.012Z,53.69
2023-04-29T01:31:51.729Z,52.10
2023-04-29T01:34:23.566Z,54.61
2023-04-29T01:37:14.160Z,51.81
2023-04-29T01:39:48.420Z,52.39
2023-04-29T01:42:51.862Z,51.46
2023-04-29T01:45:21.589Z,51.01
2023-04-29T01:47:49.467Z,50.23
2023-04-29T01:50:17.062Z,50.14
2023-04-29T01:52:44.537Z,49.82
2023-04-29T01:55:12.453Z,49.83
2023-04-29T01:57:40.354Z,48.75
2023-04-29T02:00:09.063Z,49.72
2023-04-29T02:02:41.007Z,47.94
2023-04-29T02:05:10.081Z,49.04
2023-04-29T02:07:40.207Z,49.60
2023-04-29T02:10:07.858Z,49.13
2023-04-29T02:12:36.274Z,49.13
2023-04-29T02:15:03.786Z,49.26
2023-04-29T02:17:31.282Z,48.86
2023-04-29T02:19:58.973Z,49.01
2023-04-29T02:22:26.382Z,48.87
2023-04-29T02:24:56.159Z,50.41
2023-04-29T02:27:23.914Z,50.47
2023-04-29T02:29:51.765Z,49.56
2023-04-29T02:32:20.730Z,48.20
2023-04-29T02:34:49.180Z,49.97
2023-04-29T02:37:16.594Z,49.73
2023-04-29T02:39:43.966Z,49.03
2023-04-29T02:42:13.747Z,50.16
2023-04-29T02:44:42.555Z,50.10
2023-04-29T02:47:09.971Z,51.46
2023-04-29T02:49:37.683Z,50.00
2023-04-29T02:52:05.108Z,50.73
2023-04-29T02:54:33.066Z,50.61
2023-04-29T02:57:00.759Z,49.01
2023-04-29T02:59:28.256Z,49.54
2023-04-29T03:01:55.662Z,47.99
2023-04-29T03:04:24.003Z,48.49
2023-04-29T03:06:51.456Z,46.85
2023-04-29T03:09:18.818Z,46.91
2023-04-29T03:11:46.725Z,48.89
2023-04-29T03:14:14.178Z,48.91
2023-04-29T03:16:41.668Z,47.79
2023-04-29T03:19:10.488Z,48.02
2023-04-29T03:21:37.885Z,47.84
2023-04-29T03:24:05.776Z,47.95
2023-04-29T03:26:33.620Z,47.96
2023-04-29T03:29:01.028Z,47.36
2023-04-29T03:31:28.717Z,48.03
2023-04-29T03:33:56.382Z,49.01
2023-04-29T03:36:23.866Z,48.43
2023-04-29T03:38:51.307Z,49.63
2023-04-29T03:41:19.031Z,49.15
2023-04-29T03:43:47.822Z,49.94
2023-04-29T03:46:15.244Z,49.63
2023-04-29T03:48:42.969Z,50.31
2023-04-29T03:51:10.880Z,49.28
2023-04-29T03:53:38.584Z,49.68
2023-04-29T03:56:07.006Z,48.88
2023-04-29T03:58:34.398Z,49.60
2023-04-29T04:01:01.809Z,49.27
2023-04-29T04:03:32.726Z,49.93
2023-04-29T04:06:00.221Z,48.58
2023-04-29T04:08:27.675Z,48.83
2023-04-29T04:10:55.705Z,49.53
2023-04-29T04:13:23.724Z,49.80
2023-04-29T04:15:52.132Z,50.94
2023-04-29T04:18:19.998Z,51.22
2023-04-29T04:20:47.635Z,49.75
2023-04-29T04:23:15.094Z,49.46
2023-04-29T04:25:49.803Z,48.91
2023-04-29T04:28:17.544Z,49.07
2023-04-29T04:30:46.382Z,49.43
2023-04-29T04:33:13.836Z,49.47
2023-04-29T04:35:41.320Z,48.87
2023-04-29T04:38:09.335Z,48.54
2023-04-29T04:40:37.177Z,48.69
2023-04-29T04:43:07.299Z,49.48
2023-04-29T04:45:36.717Z,50.77
2023-04-29T04:48:04.590Z,50.43
2023-04-29T04:50:33.251Z,49.98
2023-04-29T04:53:01.135Z,49.45
2023-04-29T04:55:29.605Z,49.20
2023-04-29T04:57:57.265Z,49.43
2023-04-29T05:00:24.959Z,49.80
2023-04-29T05:02:52.523Z,49.77
2023-04-29T05:05:20.141Z,49.88
2023-04-29T05:07:47.797Z,47.57
2023-04-29T05:10:15.517Z,46.81
2023-04-29T05:12:43.618Z,47.13
2023-04-29T05:15:11.501Z,46.91
2023-04-29T05:17:39.308Z,46.85
2023-04-29T05:20:07.588Z,47.04
2023-04-29T05:22:35.435Z,46.17
2023-04-29T05:25:03.722Z,46.28
2023-04-29T05:27:31.285Z,47.09
2023-04-29T05:29:59.220Z,46.30
2023-04-29T05:32:26.691Z,46.43
2023-04-29T05:34:54.103Z,46.48
2023-04-29T05:37:21.733Z,47.74
2023-04-29T05:39:51.718Z,49.09
2023-04-29T05:42:19.250Z,48.59
2023-04-29T05:44:47.346Z,45.44
2023-04-29T05:47:14.996Z,45.30
2023-04-29T05:49:43.158Z,45.80
2023-04-29T05:52:10.858Z,45.22
2023-04-29T05:54:38.366Z,46.37
2023-04-29T05:57:06.954Z,45.90
2023-04-29T05:59:34.733Z,44.91
2023-04-29T06:02:03.444Z,44.90
2023-04-29T06:04:31.370Z,44.10
2023-04-29T06:06:58.970Z,43.99
2023-04-29T06:09:28.220Z,43.14
2023-04-29T06:11:56.413Z,42.95
2023-04-29T06:14:23.896Z,45.12
2023-04-29T06:16:51.405Z,44.04
2023-04-29T06:19:19.294Z,43.27
2023-04-29T06:21:46.698Z,43.00
2023-04-29T06:24:14.068Z,44.27
2023-04-29T06:26:41.751Z,43.86
2023-04-29T06:29:09.208Z,42.77
2023-04-29T06:31:36.931Z,43.83
2023-04-29T06:34:04.883Z,43.00
2023-04-29T06:36:33.163Z,43.72
2023-04-29T06:39:01.825Z,43.78
2023-04-29T06:41:29.635Z,43.82
2023-04-29T06:43:59.214Z,43.69
2023-04-29T06:46:29.205Z,43.30
2023-04-29T06:48:57.539Z,43.99
2023-04-29T06:51:25.042Z,44.20
2023-04-29T06:53:52.407Z,42.72
2023-04-29T06:56:21.839Z,42.65
2023-04-29T06:58:49.217Z,42.33
2023-04-29T07:01:17.048Z,42.24
2023-04-29T07:03:45.354Z,42.14
2023-04-29T07:06:12.872Z,42.11
2023-04-29T07:08:40.266Z,42.04
2023-04-29T07:11:08.480Z,41.41
2023-04-29T07:13:35.837Z,41.36
2023-04-29T07:16:03.217Z,41.13
2023-04-29T07:18:31.086Z,42.62
2023-04-29T07:21:02.099Z,42.11
2023-04-29T07:23:29.659Z,41.63
2023-04-29T07:25:57.403Z,42.39
2023-04-29T07:28:24.837Z,42.08
2023-04-29T07:30:53.799Z,41.06
2023-04-29T07:33:21.466Z,39.81
2023-04-29T07:35:48.834Z,38.28
2023-04-29T07:38:16.202Z,38.66
2023-04-29T07:40:43.829Z,36.81
2023-04-29T07:43:11.546Z,34.67
2023-04-29T07:45:39.960Z,32.62
2023-04-29T07:48:07.616Z,31.75
2023-04-29T07:50:36.605Z,32.11
2023-04-29T07:53:04.280Z,30.12
2023-04-29T07:55:31.931Z,27.40
2023-04-29T07:58:00.651Z,23.74
2023-04-29T08:00:28.349Z,23.38
2023-04-29T08:02:56.391Z,23.70
2023-04-29T08:05:24.544Z,25.21
2023-04-29T08:07:52.646Z,26.65
2023-04-29T08:10:22.391Z,27.60
2023-04-29T08:12:49.900Z,29.43
2023-04-29T08:15:18.582Z,28.23
2023-04-29T08:17:46.298Z,28.69
2023-04-29T08:20:13.760Z,29.92
2023-04-29T08:22:41.253Z,30.34
2023-04-29T08:25:09.141Z,33.53
2023-04-29T08:27:36.787Z,32.58
2023-04-29T08:30:04.660Z,34.44
2023-04-29T08:32:32.677Z,32.64
2023-04-29T08:35:00.081Z,30.12
2023-04-29T08:37:27.739Z,29.17
2023-04-29T08:39:55.368Z,28.19
2023-04-29T08:42:37.889Z,27.33
2023-04-29T08:45:06.218Z,24.30
2023-04-29T08:47:33.940Z,21.85
2023-04-29T08:50:04.207Z,20.30
2023-04-29T08:52:32.411Z,21.08
2023-04-29T08:55:02.468Z,21.61
2023-04-29T08:57:31.219Z,22.84
2023-04-29T09:00:00.150Z,22.80
2023-04-29T09:02:27.658Z,23.59
2023-04-29T09:05:04.971Z,24.06
2023-04-29T09:07:33.112Z,24.64
2023-04-29T09:10:00.489Z,25.63
2023-04-29T09:12:28.421Z,25.83
2023-04-29T09:14:59.576Z,26.46
2023-04-29T09:17:46.793Z,27.22
2023-04-29T09:20:20.130Z,27.84
2023-04-29T09:23:07.704Z,28.35
2023-04-29T09:25:36.419Z,28.79
2023-04-29T09:28:15.072Z,28.14
2023-04-29T09:30:47.175Z,28.31
2023-04-29T09:33:16.806Z,28.34
2023-04-29T09:35:44.444Z,29.23
2023-04-29T09:38:15.656Z,28.38
2023-04-29T09:40:58.418Z,28.74
2023-04-29T09:43:27.519Z,27.19
2023-04-29T09:45:55.051Z,27.82
2023-04-29T09:48:22.981Z,27.39
2023-04-29T09:51:04.157Z,27.30
2023-04-29T09:53:31.917Z,28.15
2023-04-29T09:56:01.365Z,27.32
2023-04-29T09:58:31.004Z,25.87
2023-04-29T10:01:01.670Z,28.29
2023-04-29T10:03:34.408Z,29.32
2023-04-29T10:06:02.747Z,27.16
2023-04-29T10:08:30.952Z,27.83
2023-04-29T10:11:00.578Z,26.21
2023-04-29T10:13:28.434Z,26.47
2023-04-29T10:16:15.354Z,25.25
2023-04-29T10:18:45.144Z,26.44
2023-04-29T10:21:12.800Z,26.56
2023-04-29T10:23:40.223Z,25.94
2023-04-29T10:26:07.613Z,26.10
2023-04-29T10:28:35.249Z,25.73
2023-04-29T10:31:06.767Z,26.07
2023-04-29T10:33:34.285Z,26.71
2023-04-29T10:36:02.219Z,26.73
2023-04-29T10:38:37.263Z,26.71
2023-04-29T10:41:16.034Z,25.44
2023-04-29T10:43:43.407Z,24.92
2023-04-29T10:46:17.427Z,28.40
2023-04-29T10:48:45.644Z,26.68
2023-04-29T10:51:14.381Z,29.81
2023-04-29T10:54:07.692Z,29.66
2023-04-29T10:56:37.948Z,28.99
2023-04-29T10:59:05.530Z,29.75
2023-04-29T11:01:46.701Z,30.13
2023-04-29T11:04:14.564Z,30.38
2023-04-29T11:06:44.814Z,30.69
2023-04-29T11:09:14.572Z,31.99
2023-04-29T11:12:03.485Z,32.02
2023-04-29T11:14:31.882Z,32.16
2023-04-29T11:17:01.532Z,31.42
2023-04-29T11:19:36.723Z,30.59
2023-04-29T11:22:28.091Z,30.99
2023-04-29T11:25:00.624Z,28.67
2023-04-29T11:27:31.872Z,27.62
2023-04-29T11:29:59.563Z,29.46
2023-04-29T11:32:33.940Z,28.57
2023-04-29T11:35:12.398Z,28.31
2023-04-29T11:37:40.279Z,27.59
2023-04-29T11:40:08.776Z,28.22
2023-04-29T11:42:36.930Z,29.01
2023-04-29T11:45:04.515Z,28.37
2023-04-29T11:47:32.264Z,27.63
2023-04-29T11:50:09.530Z,27.85
2023-04-29T11:52:38.651Z,28.54
2023-04-29T11:55:06.444Z,28.19
2023-04-29T11:57:33.815Z,28.15
2023-04-29T12:00:01.462Z,27.61
2023-04-29T12:02:32.292Z,27.33
2023-04-29T12:05:03.912Z,27.75
2023-04-29T12:07:31.425Z,27.43
2023-04-29T12:09:59.683Z,27.53
2023-04-29T12:12:31.727Z,26.83
2023-04-29T12:14:59.153Z,27.34
2023-04-29T12:17:26.773Z,27.83
2023-04-29T12:19:54.150Z,30.11
2023-04-29T12:22:21.534Z,29.52
2023-04-29T12:24:50.875Z,30.01
2023-04-29T12:27:18.410Z,29.17
2023-04-29T12:29:46.635Z,29.87
2023-04-29T12:32:17.216Z,29.22
2023-04-29T12:34:45.730Z,30.55
2023-04-29T12:37:13.562Z,30.04
2023-04-29T12:39:41.248Z,29.25
2023-04-29T12:42:12.020Z,31.50
2023-04-29T12:44:40.734Z,32.53
2023-04-29T12:47:09.992Z,31.39
2023-04-29T12:49:38.547Z,32.03
2023-04-29T12:52:09.555Z,32.47
2023-04-29T12:54:38.128Z,31.15
2023-04-29T12:57:05.922Z,31.94
2023-04-29T12:59:33.306Z,32.14
2023-04-29T13:02:01.661Z,33.58
2023-04-29T13:04:29.220Z,31.93
2023-04-29T13:07:04.362Z,32.61
2023-04-29T13:09:32.197Z,33.19
2023-04-29T13:11:59.772Z,33.31
2023-04-29T13:14:27.661Z,33.29
2023-04-29T13:16:55.346Z,33.20
2023-04-29T13:21:53.078Z,32.34
2023-04-29T13:24:21.109Z,31.80
2023-04-29T13:26:50.313Z,32.76
2023-04-29T13:29:19.700Z,32.31
2023-04-29T13:31:47.760Z,32.11
2023-04-29T13:34:15.191Z,32.09
2023-04-29T13:36:42.607Z,31.28
2023-04-29T13:39:10.516Z,32.11
2023-04-29T13:41:41.277Z,32.61
2023-04-29T13:44:23.633Z,31.77
2023-04-29T13:46:52.480Z,32.20
2023-04-29T13:49:42.276Z,32.98
2023-04-29T13:52:47.491Z,32.85
2023-04-29T13:55:30.096Z,31.93
2023-04-29T14:00:31.902Z,33.34
2023-04-29T14:03:02.460Z,32.64
2023-04-29T14:05:30.057Z,32.84
2023-04-29T14:07:57.527Z,31.89
2023-04-29T14:10:25.135Z,31.31
2023-04-29T14:12:52.989Z,31.90
2023-04-29T14:15:20.749Z,30.65
2023-04-29T14:17:50.271Z,30.94
2023-04-29T14:20:17.718Z,30.82
2023-04-29T14:22:45.352Z,30.72
2023-04-29T14:25:13.533Z,32.68
2023-04-29T14:27:40.911Z,32.33
2023-04-29T14:30:09.061Z,33.23
2023-04-29T14:32:36.760Z,32.94
2023-04-29T14:35:04.377Z,32.45
2023-04-29T14:37:31.794Z,31.79
2023-04-29T14:39:59.467Z,32.73
2023-04-29T14:42:27.277Z,31.89
2023-04-29T14:44:54.885Z,30.71
2023-04-29T14:47:22.788Z,30.96
2023-04-29T14:49:50.182Z,30.89
2023-04-29T14:52:17.554Z,30.45
2023-04-29T14:54:45.149Z,30.39
2023-04-29T14:57:12.921Z,29.94
2023-04-29T14:59:40.332Z,30.25
2023-04-29T15:02:08.221Z,30.77
2023-04-29T15:04:35.702Z,30.54
2023-04-29T15:07:03.426Z,30.12
2023-04-29T15:09:32.121Z,30.08
2023-04-29T15:11:59.476Z,30.10
2023-04-29T15:14:26.854Z,29.35
2023-04-29T15:16:54.479Z,28.81
2023-04-29T15:19:21.858Z,29.59
2023-04-29T15:21:49.197Z,29.51
2023-04-29T15:24:17.396Z,29.73
2023-04-29T15:26:44.847Z,32.62
2023-04-29T15:29:12.181Z,31.00
2023-04-29T15:31:39.827Z,31.16
2023-04-29T15:34:07.567Z,29.99
2023-04-29T15:36:34.967Z,32.76
2023-04-29T15:39:02.581Z,31.07
2023-04-29T15:41:29.922Z,31.15
2023-04-29T15:43:57.262Z,31.29
2023-04-29T15:46:24.904Z,33.89
2023-04-29T15:48:52.287Z,32.59
2023-04-29T15:51:19.685Z,32.55
2023-04-29T15:53:47.969Z,33.27
2023-04-29T15:56:15.333Z,34.46
2023-04-29T15:58:42.770Z,33.72
2023-04-29T16:01:10.426Z,33.64
2023-04-29T16:03:38.223Z,34.36
2023-04-29T16:06:05.953Z,34.08
2023-04-29T16:08:33.343Z,35.11
2023-04-29T16:11:01.197Z,34.67
2023-04-29T16:13:28.669Z,34.09
2023-04-29T16:15:56.578Z,34.84
2023-04-29T16:18:24.235Z,34.41
2023-04-29T16:20:52.172Z,36.49
2023-04-29T16:23:19.502Z,35.25
2023-04-29T16:25:47.133Z,35.48
2023-04-29T16:28:14.516Z,35.01
2023-04-29T16:30:41.867Z,35.20
2023-04-29T16:33:09.538Z,35.95
2023-04-29T16:35:37.199Z,35.00
2023-04-29T16:38:04.556Z,35.41
2023-04-29T16:40:32.200Z,34.86
2023-04-29T16:42:59.538Z,36.77
2023-04-29T16:45:26.862Z,36.82
2023-04-29T16:47:54.777Z,35.39
2023-04-29T16:50:22.224Z,35.84
2023-04-29T16:52:49.623Z,35.10
2023-04-29T16:55:17.300Z,34.08
2023-04-29T16:57:44.631Z,34.38
2023-04-29T17:00:12.270Z,34.90
2023-04-29T17:02:45.085Z,37.03
2023-04-29T17:05:12.504Z,36.38
2023-04-29T17:07:40.128Z,37.19
2023-04-29T17:10:08.246Z,37.53
2023-04-29T17:12:35.668Z,36.29
2023-04-29T17:15:04.046Z,36.45
2023-04-29T17:17:31.705Z,38.14
2023-04-29T17:19:59.142Z,37.83
2023-04-29T17:22:26.878Z,38.78
2023-04-29T17:24:54.216Z,38.81
2023-04-29T17:27:21.592Z,38.96
2023-04-29T17:29:49.406Z,38.78
2023-04-29T17:32:17.589Z,38.99
2023-04-29T17:34:44.946Z,39.47
2023-04-29T17:37:12.558Z,39.52
2023-04-29T17:39:39.962Z,39.15
2023-04-29T17:42:07.482Z,39.42
2023-04-29T17:44:37.427Z,40.65
2023-04-29T17:47:05.466Z,39.07
2023-04-29T17:49:32.815Z,40.52
2023-04-29T17:52:02.994Z,38.72
2023-04-29T17:54:30.510Z,39.74
2023-04-29T17:56:58.934Z,40.57
2023-04-29T17:59:26.574Z,41.31
2023-04-29T18:01:53.919Z,41.21
2023-04-29T18:04:21.535Z,40.82
2023-04-29T18:06:49.016Z,41.88
2023-04-29T18:09:16.578Z,41.18
2023-04-29T18:11:44.735Z,42.07
2023-04-29T18:14:12.264Z,43.08
2023-04-29T18:16:39.687Z,42.30
2023-04-29T18:19:07.466Z,43.05
2023-04-29T18:21:34.834Z,43.72
2023-04-29T18:24:02.245Z,43.87
2023-04-29T18:26:29.956Z,44.29
2023-04-29T18:28:57.287Z,44.33
2023-04-29T18:31:26.469Z,44.77
2023-04-29T18:33:54.396Z,45.67
2023-04-29T18:36:23.632Z,46.02
2023-04-29T18:38:50.993Z,45.48
2023-04-29T18:41:18.657Z,45.49
2023-04-29T18:43:46.043Z,45.91
2023-04-29T18:46:13.430Z,46.28
2023-04-29T18:48:41.416Z,46.69
2023-04-29T18:51:08.823Z,46.22
2023-04-29T18:53:36.240Z,46.19
2023-04-29T18:56:03.990Z,46.26
2023-04-29T18:58:31.446Z,45.84
2023-04-29T19:00:59.980Z,45.84
2023-04-29T19:03:27.987Z,45.51
2023-04-29T19:05:55.420Z,46.52
2023-04-29T19:08:22.772Z,45.02
2023-04-29T19:10:50.699Z,45.83
2023-04-29T19:13:18.091Z,44.51
2023-04-29T19:15:45.785Z,44.26
2023-04-29T19:18:13.386Z,43.97
2023-04-29T19:20:40.892Z,45.13
2023-04-29T19:23:08.527Z,44.99
2023-04-29T19:25:36.245Z,45.34
2023-04-29T19:28:03.919Z,44.89
2023-04-29T19:30:31.317Z,44.17
2023-04-29T19:32:58.979Z,45.85
2023-04-29T19:35:26.526Z,45.46
2023-04-29T19:37:54.819Z,45.30
2023-04-29T19:40:22.517Z,45.73
2023-04-29T19:42:49.841Z,45.78
2023-04-29T19:45:17.184Z,45.48
2023-04-29T19:47:44.850Z,46.03
2023-04-29T19:50:12.211Z,46.23
2023-04-29T19:52:39.634Z,47.53
2023-04-29T19:55:08.930Z,47.41
2023-04-29T19:57:36.477Z,46.61
2023-04-29T20:00:04.667Z,45.97
2023-04-29T20:02:33.980Z,47.09
2023-04-29T20:05:01.784Z,46.60
2023-04-29T20:07:29.121Z,46.59
2023-04-29T20:09:56.817Z,46.60
2023-04-29T20:12:24.568Z,47.15
2023-04-29T20:14:51.918Z,47.53
2023-04-29T20:17:19.309Z,47.46
2023-04-29T20:19:46.980Z,47.01
2023-04-29T20:22:14.398Z,47.22
2023-04-29T20:24:41.747Z,47.93
2023-04-29T20:27:09.357Z,47.62
2023-04-29T20:29:37.124Z,47.86
2023-04-29T20:32:06.000Z,47.83
2023-04-29T20:34:33.740Z,48.06
2023-04-29T20:37:01.437Z,48.50
2023-04-29T20:39:28.947Z,49.39
2023-04-29T20:41:56.980Z,49.38
2023-04-29T20:44:24.530Z,48.84
2023-04-29T20:46:53.077Z,48.77
2023-04-29T20:49:20.818Z,48.31
2023-04-29T20:51:49.343Z,48.33
2023-04-29T20:54:16.904Z,47.99
2023-04-29T20:56:44.545Z,48.72
2023-04-29T20:59:11.889Z,48.85
2023-04-29T21:01:39.312Z,49.02
2023-04-29T21:04:07.051Z,49.15
2023-04-29T21:06:34.495Z,48.96
2023-04-29T21:09:02.284Z,48.06
2023-04-29T21:11:29.916Z,49.40
2023-04-29T21:13:57.469Z,52.04
2023-04-29T21:16:24.906Z,51.52
2023-04-29T21:18:52.549Z,50.27
2023-04-29T21:21:19.922Z,49.31
2023-04-29T21:23:47.296Z,49.63
2023-04-29T21:26:15.119Z,49.78
2023-04-29T21:28:42.525Z,49.97
2023-04-29T21:31:15.309Z,50.62
2023-04-29T21:33:43.762Z,49.77
2023-04-29T21:36:11.148Z,49.28
2023-04-29T21:38:38.632Z,50.48
2023-04-29T21:41:06.380Z,51.27
2023-04-29T21:43:33.848Z,51.01
2023-04-29T21:46:01.298Z,50.50
2023-04-29T21:48:28.934Z,49.93
2023-04-29T21:50:56.334Z,50.71
2023-04-29T21:53:23.746Z,51.10
2023-04-29T21:55:51.409Z,50.46
2023-04-29T21:58:20.949Z,49.20
2023-04-29T22:00:58.346Z,50.14
2023-04-29T22:03:26.296Z,50.49
2023-04-29T22:05:53.735Z,50.47
2023-04-29T22:08:21.125Z,50.13
2023-04-29T22:10:48.805Z,50.25
2023-04-29T22:13:16.253Z,50.83
2023-04-29T22:15:43.611Z,50.32
2023-04-29T22:18:11.210Z,50.41
2023-04-29T22:20:38.575Z,50.48
2023-04-29T22:23:05.910Z,50.98
2023-04-29T22:25:33.571Z,50.02
2023-04-29T22:28:01.311Z,50.01
2023-04-29T22:30:28.630Z,51.86
2023-04-29T22:32:56.831Z,51.91
2023-04-29T22:35:24.219Z,51.05
2023-04-29T22:37:51.634Z,50.26
2023-04-29T22:40:19.360Z,50.61
2023-04-29T22:42:46.907Z,50.94
2023-04-29T22:45:14.222Z,51.13
2023-04-29T22:47:43.268Z,51.33
2023-04-29T22:50:10.951Z,50.51
2023-04-29T22:52:38.314Z,50.82
2023-04-29T22:55:06.238Z,50.10
2023-04-29T22:57:33.586Z,49.56
2023-04-29T23:00:01.115Z,50.18
2023-04-29T23:02:29.515Z,50.09
2023-04-29T23:04:57.694Z,50.60
2023-04-29T23:07:25.510Z,50.72
2023-04-29T23:09:53.355Z,50.92
2023-04-29T23:12:21.108Z,50.84
2023-04-29T23:14:48.650Z,50.95
2023-04-29T23:17:16.249Z,50.65
2023-04-29T23:19:43.618Z,50.48
2023-04-29T23:22:11.004Z,51.14
2023-04-29T23:24:38.591Z,50.43
2023-04-29T23:27:06.111Z,51.43
2023-04-29T23:29:36.505Z,51.58
2023-04-29T23:32:04.195Z,50.79
2023-04-29T23:34:31.573Z,50.36
2023-04-29T23:37:01.250Z,51.62
2023-04-29T23:39:28.917Z,51.01
2023-04-29T23:41:56.589Z,51.20
2023-04-29T23:44:25.170Z,51.12
2023-04-29T23:46:53.659Z,51.29
2023-04-29T23:49:21.028Z,51.82
2023-04-29T23:51:48.389Z,50.99
2023-04-29T23:54:16.281Z,50.75
2023-04-29T23:56:43.596Z,50.63
2023-04-29T23:59:10.974Z,50.28
